createdAt,value
2018-06-21T08:18:53.982Z,11.60
2018-06-21T08:21:22.070Z,11.40
2018-06-21T08:23:50.177Z,12.10
2018-06-21T08:26:18.291Z,11.40
2018-06-21T08:28:46.398Z,11.50
2018-06-21T08:31:14.496Z,10.50
2018-06-21T08:33:42.587Z,11.60
2018-06-21T08:36:10.697Z,11.50
2018-06-21T08:38:38.797Z,10.70
2018-06-21T08:41:07.134Z,11.40
2018-06-21T08:43:35.566Z,10.80
2018-06-21T08:46:03.735Z,10.00
2018-06-21T08:48:31.818Z,10.10
2018-06-21T08:50:59.943Z,10.70
2018-06-21T08:53:28.052Z,10.60
2018-06-21T08:55:56.126Z,10.40
2018-06-21T08:58:24.265Z,9.20
2018-06-21T09:00:52.311Z,9.80
2018-06-21T09:03:20.421Z,9.90
2018-06-21T09:05:48.524Z,10.20
2018-06-21T09:08:16.627Z,10.30
2018-06-21T09:10:44.731Z,9.50
2018-06-21T09:13:12.818Z,9.10
2018-06-21T09:15:40.971Z,9.90
2018-06-21T09:18:09.054Z,9.20
2018-06-21T09:20:37.133Z,9.60
2018-06-21T09:23:05.219Z,9.80
2018-06-21T09:25:33.317Z,9.30
2018-06-21T09:28:01.407Z,8.30
2018-06-21T09:30:29.545Z,9.00
2018-06-21T09:32:57.586Z,8.90
2018-06-21T09:35:25.676Z,9.10
2018-06-21T09:37:59.183Z,7.70
2018-06-21T09:40:32.573Z,7.80
2018-06-21T09:43:06.138Z,8.10
2018-06-21T09:45:39.713Z,7.70
2018-06-21T09:48:13.122Z,7.50
2018-06-21T09:50:41.223Z,8.20
2018-06-21T09:53:09.303Z,8.20
2018-06-21T09:55:37.398Z,7.40
2018-06-21T10:00:38.671Z,7.80
2018-06-21T10:03:06.756Z,7.80
2018-06-21T10:05:34.856Z,8.20
2018-06-21T10:08:02.937Z,7.70
2018-06-21T10:10:31.029Z,8.30
2018-06-21T10:12:59.114Z,7.50
2018-06-21T10:15:27.207Z,7.60
2018-06-21T10:17:58.313Z,7.70
2018-06-21T10:20:26.456Z,7.70
2018-06-21T10:22:54.629Z,8.40
2018-06-21T10:25:22.765Z,7.90
2018-06-21T10:27:50.873Z,7.80
2018-06-21T10:30:19.249Z,7.50
2018-06-21T10:32:47.351Z,7.40
2018-06-21T10:35:15.434Z,7.90
2018-06-21T10:40:11.606Z,7.30
2018-06-21T10:42:39.713Z,7.90
2018-06-21T10:45:07.981Z,7.60
2018-06-21T10:47:36.169Z,7.50
2018-06-21T10:50:04.241Z,6.60
2018-06-21T10:52:32.334Z,6.70
2018-06-21T10:55:00.419Z,7.50
2018-06-21T10:57:28.507Z,7.00
2018-06-21T10:59:56.577Z,7.50
2018-06-21T11:02:24.666Z,6.60
2018-06-21T11:04:52.741Z,5.90
2018-06-21T11:07:20.821Z,6.20
2018-06-21T11:09:48.905Z,5.70
2018-06-21T11:12:16.977Z,6.60
2018-06-21T11:14:45.090Z,5.20
2018-06-21T11:17:13.130Z,4.60
2018-06-21T11:19:41.202Z,5.20
2018-06-21T11:22:09.313Z,5.90
2018-06-21T11:24:37.376Z,7.50
2018-06-21T11:27:05.474Z,9.30
2018-06-21T11:29:33.552Z,10.60
2018-06-21T11:32:01.645Z,11.30
2018-06-21T11:34:29.734Z,11.40
2018-06-21T11:36:57.827Z,11.80
2018-06-21T11:39:25.911Z,12.00
2018-06-21T11:41:54.007Z,12.60
2018-06-21T11:44:22.079Z,12.80
2018-06-21T11:46:50.228Z,12.60
2018-06-21T11:49:18.234Z,13.20
2018-06-21T11:51:46.317Z,12.80
2018-06-21T11:54:14.397Z,12.70
2018-06-21T11:56:42.494Z,13.10
2018-06-21T11:59:10.572Z,14.00
2018-06-21T12:01:38.652Z,13.80
2018-06-21T12:04:06.737Z,13.60
2018-06-21T12:06:34.830Z,14.00
2018-06-21T12:09:03.132Z,14.70
2018-06-21T12:11:31.217Z,15.00
2018-06-21T12:13:59.368Z,15.00
2018-06-21T12:16:27.401Z,15.40
2018-06-21T12:18:55.621Z,15.00
2018-06-21T12:21:23.697Z,14.80
2018-06-21T12:26:20.685Z,14.70
2018-06-21T12:28:48.785Z,13.80
2018-06-21T12:31:16.861Z,13.70
2018-06-21T12:33:44.953Z,13.50
2018-06-21T12:36:13.037Z,13.00
2018-06-21T12:38:41.282Z,11.40
2018-06-21T12:41:09.361Z,11.50
2018-06-21T12:43:37.457Z,9.90
2018-06-21T12:46:05.515Z,8.80
2018-06-21T12:48:33.609Z,9.90
2018-06-21T12:51:01.682Z,8.10
2018-06-21T12:53:29.762Z,8.90
2018-06-21T12:55:57.838Z,7.60
2018-06-21T12:58:25.923Z,6.70
2018-06-21T13:00:54.000Z,5.90
2018-06-21T13:03:22.089Z,5.90
2018-06-21T13:05:50.161Z,4.80
2018-06-21T13:08:29.563Z,1.20
2018-06-21T13:11:09.129Z,1.00
2018-06-21T13:13:37.314Z,1.00
2018-06-21T13:16:05.395Z,1.00
2018-06-21T13:18:33.478Z,1.00
2018-06-21T13:21:01.567Z,1.00
2018-06-21T13:23:29.640Z,1.00
2018-06-21T13:25:57.723Z,1.00
2018-06-21T13:28:25.832Z,1.00
2018-06-21T13:30:53.905Z,1.00
2018-06-21T13:33:21.991Z,1.00
2018-06-21T13:35:50.058Z,1.00
2018-06-21T13:38:18.133Z,1.00
2018-06-21T13:40:46.209Z,1.00
2018-06-21T13:43:14.301Z,1.00
2018-06-21T13:45:42.383Z,1.00
2018-06-21T13:48:10.458Z,1.00
2018-06-21T13:50:38.545Z,1.00
2018-06-21T13:53:06.633Z,1.00
2018-06-21T13:55:34.698Z,1.00
2018-06-21T13:58:02.785Z,1.00
2018-06-21T14:00:30.857Z,1.00
2018-06-21T14:02:58.937Z,1.00
2018-06-21T14:05:27.009Z,1.00
2018-06-21T14:07:55.275Z,1.00
2018-06-21T14:10:23.175Z,1.00
2018-06-21T14:12:51.439Z,1.00
2018-06-21T14:15:19.487Z,1.00
2018-06-21T14:17:47.562Z,1.00
2018-06-21T14:20:15.659Z,1.00
2018-06-21T14:25:11.631Z,1.00
2018-06-21T14:27:39.702Z,1.00
2018-06-21T14:30:07.811Z,1.00
2018-06-21T14:32:35.865Z,1.00
2018-06-21T14:35:03.957Z,1.00
2018-06-21T14:37:32.041Z,1.00
2018-06-21T14:40:00.122Z,1.00
2018-06-21T14:42:28.228Z,1.00
2018-06-21T14:44:56.291Z,1.00
2018-06-21T14:47:24.366Z,1.00
2018-06-21T14:49:52.455Z,1.00
2018-06-21T14:52:20.526Z,1.00
2018-06-21T14:54:48.619Z,1.00
2018-06-21T14:57:16.689Z,1.00
2018-06-21T14:59:44.782Z,1.00
2018-06-21T15:02:12.979Z,1.00
2018-06-21T15:04:41.053Z,1.00
2018-06-21T15:07:09.132Z,1.00
2018-06-21T15:09:37.480Z,1.00
2018-06-21T15:12:05.679Z,1.00
2018-06-21T15:14:33.761Z,1.00
2018-06-21T15:17:01.838Z,1.00
2018-06-21T15:19:29.914Z,1.00
2018-06-21T15:21:57.995Z,1.00
2018-06-21T15:24:26.082Z,1.00
2018-06-21T15:26:54.183Z,1.00
2018-06-21T15:29:22.271Z,1.00
2018-06-21T15:31:50.368Z,1.00
2018-06-21T15:34:18.449Z,1.00
2018-06-21T15:36:46.527Z,1.00
2018-06-21T15:39:20.413Z,1.00
2018-06-21T15:41:48.497Z,1.00
2018-06-21T15:44:16.874Z,1.00
2018-06-21T15:46:45.150Z,1.00
2018-06-21T15:49:13.907Z,1.00
2018-06-21T15:51:42.311Z,1.00
2018-06-21T15:54:10.394Z,1.00
2018-06-21T15:56:38.466Z,1.00
2018-06-21T15:59:06.561Z,1.00
2018-06-21T16:01:34.650Z,1.00
2018-06-21T16:04:02.727Z,1.00
2018-06-21T16:06:30.951Z,1.00
2018-06-21T16:08:59.026Z,1.00
2018-06-21T16:11:27.102Z,1.00
2018-06-21T16:13:55.181Z,1.00
2018-06-21T16:16:23.252Z,1.00
2018-06-21T16:18:51.317Z,1.00
2018-06-21T16:21:19.406Z,1.00
2018-06-21T16:26:15.354Z,1.00
2018-06-21T16:28:43.421Z,1.00
2018-06-21T16:31:11.515Z,1.00
2018-06-21T16:33:39.607Z,1.00
2018-06-21T16:36:08.103Z,1.00
2018-06-21T16:38:36.199Z,1.00
2018-06-21T16:41:04.272Z,1.00
2018-06-21T16:46:00.223Z,1.00
2018-06-21T16:48:28.342Z,1.00
2018-06-21T16:50:56.447Z,1.00
2018-06-21T16:53:24.513Z,1.00
2018-06-21T16:55:52.609Z,1.00
2018-06-21T16:58:20.685Z,1.00
2018-06-21T17:00:48.770Z,1.00
2018-06-21T17:03:16.861Z,1.00
2018-06-21T17:05:44.937Z,1.00
2018-06-21T17:08:13.046Z,1.00
2018-06-21T17:13:08.985Z,1.00
2018-06-21T17:15:37.091Z,1.00
2018-06-21T17:18:05.186Z,1.00
2018-06-21T17:20:33.277Z,1.00
2018-06-21T17:23:01.345Z,1.00
2018-06-21T17:25:29.443Z,1.00
2018-06-21T17:27:57.515Z,1.00
2018-06-21T17:30:25.617Z,1.00
2018-06-21T17:32:53.682Z,1.00
2018-06-21T17:35:21.762Z,1.00
2018-06-21T17:37:49.855Z,1.00
2018-06-21T17:40:17.937Z,1.00
2018-06-21T17:42:46.011Z,1.00
2018-06-21T17:45:14.165Z,1.00
2018-06-21T17:47:42.231Z,1.00
2018-06-21T17:50:10.298Z,1.00
2018-06-21T17:52:38.378Z,1.00
2018-06-21T17:55:06.458Z,1.00
2018-06-21T17:57:34.537Z,1.00
2018-06-21T18:00:02.635Z,1.00
2018-06-21T18:02:30.725Z,1.00
2018-06-21T18:04:58.801Z,1.00
2018-06-21T18:07:26.879Z,1.00
2018-06-21T18:09:54.952Z,1.00
2018-06-21T18:12:23.039Z,1.00
2018-06-21T18:14:51.106Z,1.00
2018-06-21T18:17:19.209Z,1.00
2018-06-21T18:19:47.291Z,1.00
2018-06-21T18:22:15.370Z,1.00
2018-06-21T18:24:43.442Z,1.00
2018-06-21T18:27:11.543Z,1.00
2018-06-21T18:29:39.623Z,1.00
2018-06-21T18:32:07.782Z,1.00
2018-06-21T18:34:35.863Z,1.00
2018-06-21T18:37:03.937Z,1.00
2018-06-21T18:39:32.018Z,1.00
2018-06-21T18:42:00.135Z,1.00
2018-06-21T18:44:28.171Z,1.00
2018-06-21T18:46:56.255Z,1.00
2018-06-21T18:49:24.336Z,1.00
2018-06-21T18:51:52.443Z,1.00
2018-06-21T18:54:20.535Z,1.00
2018-06-21T18:56:48.613Z,1.00
2018-06-21T18:59:16.755Z,1.00
2018-06-21T19:01:44.817Z,1.00
2018-06-21T19:04:12.921Z,1.00
2018-06-21T19:06:46.229Z,1.00
2018-06-21T19:09:19.805Z,1.40
2018-06-21T19:11:53.226Z,1.00
2018-06-21T19:14:21.309Z,1.00
2018-06-21T19:16:49.391Z,1.00
2018-06-21T19:19:17.482Z,1.00
2018-06-21T19:21:45.559Z,1.00
2018-06-21T19:24:13.655Z,1.50
2018-06-21T19:26:41.745Z,2.30
2018-06-21T19:29:09.861Z,1.20
2018-06-21T19:31:37.929Z,1.00
2018-06-21T19:34:06.009Z,1.00
2018-06-21T19:36:34.137Z,1.00
2018-06-21T19:39:02.178Z,1.00
2018-06-21T19:41:30.248Z,1.00
2018-06-21T19:43:58.345Z,1.00
2018-06-21T19:46:26.495Z,1.00
2018-06-21T19:48:54.584Z,1.00
2018-06-21T19:51:22.645Z,1.40
2018-06-21T19:53:50.724Z,1.10
2018-06-21T19:56:18.807Z,2.30
2018-06-21T19:58:46.959Z,2.90
2018-06-21T20:01:15.071Z,1.90
2018-06-21T20:03:43.187Z,2.90
2018-06-21T20:06:11.270Z,1.30
2018-06-21T20:08:39.341Z,2.30
2018-06-21T20:11:12.749Z,1.10
2018-06-21T20:13:44.097Z,1.00
2018-06-21T20:16:12.191Z,1.10
2018-06-21T20:18:40.273Z,1.00
2018-06-21T20:21:12.033Z,1.00
2018-06-21T20:23:41.059Z,1.00
2018-06-21T20:26:09.462Z,2.90
2018-06-21T20:28:37.529Z,3.10
2018-06-21T20:31:05.821Z,2.90
2018-06-21T20:33:33.889Z,1.50
2018-06-21T20:36:01.983Z,2.00
2018-06-21T20:38:30.054Z,1.10
2018-06-21T20:40:58.133Z,1.20
2018-06-21T20:43:26.209Z,2.10
2018-06-21T20:45:54.299Z,1.50
2018-06-21T20:48:22.361Z,3.50
2018-06-21T20:50:51.263Z,4.10
2018-06-21T20:53:19.337Z,4.80
2018-06-21T20:55:47.416Z,3.50
2018-06-21T20:58:15.482Z,4.80
2018-06-21T21:00:43.565Z,2.40
2018-06-21T21:03:11.640Z,1.80
2018-06-21T21:05:39.743Z,4.00
2018-06-21T21:08:07.813Z,3.80
2018-06-21T21:10:35.893Z,2.90
2018-06-21T21:13:03.986Z,3.50
2018-06-21T21:17:59.939Z,3.80
2018-06-21T21:20:28.015Z,3.40
2018-06-21T21:22:56.098Z,4.20
2018-06-21T21:25:24.183Z,4.00
2018-06-21T21:27:52.261Z,4.50
2018-06-21T21:30:20.346Z,3.60
2018-06-21T21:32:48.439Z,3.00
2018-06-21T21:35:16.523Z,3.10
2018-06-21T21:37:44.605Z,5.30
2018-06-21T21:40:12.727Z,4.10
2018-06-21T21:42:40.829Z,5.80
2018-06-21T21:47:36.777Z,4.80
2018-06-21T21:50:04.859Z,5.00
2018-06-21T21:52:32.955Z,5.60
2018-06-21T21:55:01.054Z,5.60
2018-06-21T21:57:29.114Z,5.50
2018-06-21T21:59:57.198Z,4.80
2018-06-21T22:02:25.273Z,5.50
2018-06-21T22:04:53.364Z,6.10
2018-06-21T22:07:21.448Z,6.30
2018-06-21T22:09:49.552Z,5.30
2018-06-21T22:12:17.631Z,7.10
2018-06-21T22:14:45.719Z,7.40
2018-06-21T22:17:13.789Z,7.30
2018-06-21T22:19:41.870Z,6.30
2018-06-21T22:22:09.947Z,6.10
2018-06-21T22:24:38.027Z,7.20
2018-06-21T22:29:33.989Z,7.30
2018-06-21T22:32:02.081Z,6.00
2018-06-21T22:34:30.161Z,5.90
2018-06-21T22:36:58.250Z,6.20
2018-06-21T22:39:26.338Z,7.50
2018-06-21T22:41:54.417Z,7.70
2018-06-21T22:44:22.493Z,6.10
2018-06-21T22:46:50.575Z,7.80
2018-06-21T22:49:18.666Z,8.30
2018-06-21T22:51:46.742Z,7.50
2018-06-21T22:54:14.825Z,8.90
2018-06-21T22:56:42.897Z,7.90
2018-06-21T22:59:10.991Z,7.80
2018-06-21T23:01:39.062Z,7.90
2018-06-21T23:04:07.151Z,7.60
2018-06-21T23:09:03.103Z,8.70
2018-06-21T23:11:31.187Z,7.70
2018-06-21T23:13:59.288Z,7.90
2018-06-21T23:16:27.359Z,8.70
2018-06-21T23:19:06.846Z,8.50
2018-06-21T23:21:34.917Z,8.60
2018-06-21T23:24:03.007Z,8.50
2018-06-21T23:26:31.090Z,8.50
2018-06-21T23:28:59.177Z,8.70
2018-06-21T23:31:27.367Z,9.10
2018-06-21T23:33:55.625Z,9.50
2018-06-21T23:36:23.715Z,9.70
2018-06-21T23:38:51.781Z,9.00
2018-06-21T23:41:19.873Z,9.40
2018-06-21T23:43:47.943Z,9.30
2018-06-21T23:46:16.054Z,9.20
2018-06-21T23:48:44.150Z,9.00
2018-06-21T23:51:12.247Z,9.50
2018-06-21T23:53:40.323Z,9.70
2018-06-21T23:56:08.413Z,9.90
2018-06-21T23:58:36.503Z,10.00
